Thunder radar more information blitzortung!


Radar de pluja more information rain snow radar


Visita la nostra xarxa de llocs de meteo:

Template documentation
and downloads

And another site



No particular awareness of the weather is required.    There are no Weather-warnings

Pagina Historial Weather Underground text

Diari Resum January 21, 2018 Unitats:  Imperial    Mètric   Tant
« Previous Dia
SegĂźent Dia »
Diari Setmana Mensual Anual Personalitzada
  Maxima: Minima: Media:
Temperatura: TemperatureF °F 53.4 °F 57.9 °F
Punt de rosada: DewpointF °F 40.6 °F 44.5 °F
Humitat: Humidity % 50 % 61 %
Wind Speed: WindSpeedMPH mph 0.0 mph 4.3 mph
RĂ fegues de vent: WindSpeedGustMPH mph - -
Vent:- - SSW
Pression baro: PressureIn in 30.00 in -
Precipitacions: 0.00 in    
Historical Graphs
 
 
Dades de taula per January 21, 2018
Temps Temperatura Punt de rosada Pression baro Vent Wind Speed RĂ fegues de vent Humitat Rainfall Rate (Hourly)
TemperatureF °F DewpointF °F PressureIn in Calm     Humidity % HourlyPrecipIn in
00:03 53.8 °F 40.6 °F 30.03 in West 3.5 mph 3.5 mph 61 % 0.00 in
00:08 54.0 °F 40.8 °F 30.03 in WSW 3.5 mph 3.5 mph 61 % 0.00 in
00:13 54.0 °F 40.8 °F 30.03 in WSW 3.8 mph 3.8 mph 61 % 0.00 in
00:18 54.0 °F 40.8 °F 30.03 in WSW 3.5 mph 3.5 mph 61 % 0.00 in
00:23 53.8 °F 41.1 °F 30.03 in Calm     62 % 0.00 in
00:28 53.8 °F 41.1 °F 30.03 in East 1.2 mph   62 % 0.00 in
00:33 54.0 °F 41.2 °F 30.03 in ESE 1.2 mph 1.2 mph 62 % 0.00 in
00:38 53.8 °F 41.5 °F 30.03 in ESE 4.6 mph 4.6 mph 63 % 0.00 in
00:43 53.8 °F 41.5 °F 30.03 in South 1.2 mph 1.4 mph 63 % 0.00 in
00:48 53.6 °F 40.9 °F 30.06 in WSW 2.3 mph 2.3 mph 62 % 0.00 in
00:53 53.6 °F 40.9 °F 30.06 in NE 2.3 mph 2.3 mph 62 % 0.00 in
00:58 53.8 °F 41.5 °F 30.06 in NW 2.3 mph 2.4 mph 63 % 0.00 in
01:03 53.8 °F 41.1 °F 30.03 in WNW 2.3 mph 2.3 mph 62 % 0.00 in
01:08 53.8 °F 41.1 °F 30.03 in WSW 3.8 mph 3.8 mph 62 % 0.00 in
01:13 54.0 °F 41.6 °F 30.03 in ENE 2.3 mph 2.3 mph 63 % 0.00 in
01:18 54.0 °F 41.2 °F 30.03 in SSW 4.6 mph 4.6 mph 62 % 0.00 in
01:23 54.0 °F 41.6 °F 30.03 in West 2.3 mph 2.3 mph 63 % 0.00 in
01:28 54.0 °F 41.6 °F 30.03 in SW 2.4 mph 2.4 mph 63 % 0.00 in
01:33 53.8 °F 41.5 °F 30.03 in NW 2.3 mph 2.3 mph 63 % 0.00 in
01:38 53.8 °F 41.5 °F 30.03 in West 3.5 mph 3.5 mph 63 % 0.00 in
01:48 54.0 °F 41.6 °F 30.03 in WSW 3.5 mph 3.5 mph 63 % 0.00 in
01:53 54.0 °F 41.6 °F 30.03 in SW 5.9 mph 5.9 mph 63 % 0.00 in
01:58 54.0 °F 41.6 °F 30.03 in WSW 2.3 mph 2.3 mph 63 % 0.00 in
02:03 53.8 °F 41.5 °F 30.03 in WNW 3.5 mph 3.5 mph 63 % 0.00 in
02:08 54.0 °F 41.6 °F 30.03 in WNW 3.1 mph 3.1 mph 63 % 0.00 in
02:13 54.0 °F 41.6 °F 30.03 in WSW 4.6 mph 4.6 mph 63 % 0.00 in
02:18 54.0 °F 41.6 °F 30.00 in East 4.6 mph 4.6 mph 63 % 0.00 in
02:23 53.6 °F 41.3 °F 30.00 in WNW 3.5 mph 3.5 mph 63 % 0.00 in
02:28 53.6 °F 41.3 °F 30.00 in WNW 3.5 mph 3.5 mph 63 % 0.00 in
02:33 54.0 °F 42.1 °F 30.00 in WNW 5.8 mph 5.8 mph 64 % 0.00 in
02:38 54.1 °F 42.2 °F 30.00 in WSW 8.1 mph 8.1 mph 64 % 0.00 in
02:43 54.3 °F 42.4 °F 30.00 in SW 6.9 mph 6.9 mph 64 % 0.00 in
02:48 54.5 °F 42.6 °F 30.00 in SSW 10.4 mph 10.4 mph 64 % 0.00 in
02:53 54.5 °F 42.6 °F 30.00 in WNW 4.6 mph 4.6 mph 64 % 0.00 in
02:58 54.3 °F 42.4 °F 30.00 in West 5.6 mph 5.6 mph 64 % 0.00 in
03:03 54.3 °F 42.4 °F 30.03 in WNW 4.6 mph 4.6 mph 64 % 0.00 in
03:08 54.5 °F 42.6 °F 30.03 in SSW 5.9 mph 5.9 mph 64 % 0.00 in
03:13 54.7 °F 42.7 °F 30.03 in SW 4.6 mph 4.6 mph 64 % 0.00 in
03:18 54.9 °F 42.9 °F 30.03 in SW 4.6 mph 4.6 mph 64 % 0.00 in
03:23 54.9 °F 42.9 °F 30.03 in NNW 5.8 mph 5.8 mph 64 % 0.00 in
03:28 54.9 °F 42.9 °F 30.03 in East 2.4 mph 2.4 mph 64 % 0.00 in
03:33 55.0 °F 43.1 °F 30.03 in ESE 4.6 mph 4.6 mph 64 % 0.00 in
03:38 54.9 °F 42.9 °F 30.03 in NE 4.6 mph 4.6 mph 64 % 0.00 in
03:43 55.0 °F 43.1 °F 30.03 in ESE 3.5 mph 3.5 mph 64 % 0.00 in
03:48 54.7 °F 42.7 °F 30.03 in ESE 2.3 mph   64 % 0.00 in
03:53 54.5 °F 42.6 °F 30.03 in WNW 2.3 mph 2.3 mph 64 % 0.00 in
03:58 54.5 °F 42.6 °F 30.03 in WSW 2.3 mph 2.3 mph 64 % 0.00 in
04:03 54.5 °F 42.6 °F 30.03 in WNW 5.8 mph 5.8 mph 64 % 0.00 in
04:08 54.5 °F 42.6 °F 30.03 in WNW 2.3 mph 2.3 mph 64 % 0.00 in
04:13 54.5 °F 42.6 °F 30.03 in SSW 4.0 mph 4.0 mph 64 % 0.00 in
04:18 54.5 °F 42.6 °F 30.03 in SSW 2.9 mph 2.9 mph 64 % 0.00 in
04:23 54.5 °F 42.6 °F 30.03 in ENE 3.5 mph 3.5 mph 64 % 0.00 in
04:28 54.7 °F 42.7 °F 30.03 in West 3.5 mph 3.5 mph 64 % 0.00 in
04:33 54.9 °F 42.9 °F 30.03 in NW 4.6 mph 4.6 mph 64 % 0.00 in
04:38 54.9 °F 42.9 °F 30.03 in South 3.5 mph 3.5 mph 64 % 0.00 in
04:43 55.0 °F 43.1 °F 30.03 in West 3.6 mph 3.6 mph 64 % 0.00 in
04:48 55.0 °F 43.1 °F 30.03 in NW 5.4 mph 5.4 mph 64 % 0.00 in
04:53 55.2 °F 43.2 °F 30.03 in NNW 5.8 mph 5.8 mph 64 % 0.00 in
04:58 55.2 °F 43.2 °F 30.03 in WSW 3.5 mph 3.5 mph 64 % 0.00 in
05:03 55.4 °F 43.4 °F 30.03 in WNW 4.6 mph 4.6 mph 64 % 0.00 in
05:08 55.4 °F 43.4 °F 30.03 in WNW 6.9 mph 6.9 mph 64 % 0.00 in
05:13 55.4 °F 43.4 °F 30.03 in WNW 4.6 mph 4.6 mph 64 % 0.00 in
05:18 55.4 °F 43.4 °F 30.00 in WNW 7.1 mph 7.1 mph 64 % 0.00 in
05:23 55.4 °F 43.4 °F 30.00 in ENE 8.1 mph 8.1 mph 64 % 0.00 in
05:28 55.4 °F 43.4 °F 30.00 in WNW 4.6 mph 4.6 mph 64 % 0.00 in
05:33 55.4 °F 43.4 °F 30.00 in WNW 8.1 mph 8.1 mph 64 % 0.00 in
05:38 55.6 °F 43.6 °F 30.00 in WSW 8.1 mph 8.1 mph 64 % 0.00 in
05:43 55.6 °F 43.6 °F 30.00 in NW 5.8 mph 5.8 mph 64 % 0.00 in
05:48 55.6 °F 43.6 °F 30.03 in West 5.8 mph 5.8 mph 64 % 0.00 in
05:53 55.6 °F 43.6 °F 30.03 in East 5.8 mph 5.8 mph 64 % 0.00 in
05:58 55.4 °F 43.4 °F 30.03 in NW 3.5 mph 3.5 mph 64 % 0.00 in
06:03 55.4 °F 43.4 °F 30.03 in WNW 6.9 mph 6.9 mph 64 % 0.00 in
06:08 55.4 °F 43.4 °F 30.03 in WNW 6.2 mph 6.2 mph 64 % 0.00 in
06:13 55.4 °F 43.4 °F 30.03 in WSW 5.4 mph 5.4 mph 64 % 0.00 in
06:18 55.4 °F 43.4 °F 30.06 in West 4.7 mph 4.7 mph 64 % 0.00 in
06:23 55.4 °F 43.4 °F 30.06 in WSW 5.8 mph 5.8 mph 64 % 0.00 in
06:28 55.4 °F 43.4 °F 30.06 in West 11.5 mph 11.5 mph 64 % 0.00 in
06:33 55.6 °F 43.6 °F 30.03 in NNE 5.8 mph 5.8 mph 64 % 0.00 in
06:38 55.4 °F 43.4 °F 30.03 in West 5.8 mph 5.8 mph 64 % 0.00 in
06:43 55.2 °F 43.2 °F 30.03 in WSW 5.8 mph 5.8 mph 64 % 0.00 in
06:54 55.2 °F 43.2 °F 30.06 in WNW 5.8 mph 5.8 mph 64 % 0.00 in
07:04 55.2 °F 43.2 °F 30.06 in SW 5.8 mph 5.8 mph 64 % 0.00 in
07:14 55.2 °F 43.2 °F 30.06 in NW 4.6 mph 4.6 mph 64 % 0.00 in
07:19 55.0 °F 43.1 °F 30.06 in WNW 4.6 mph 4.6 mph 64 % 0.00 in
07:39 54.9 °F 43.3 °F 30.03 in NNW 9.2 mph 9.2 mph 65 % 0.00 in
07:44 55.0 °F 43.5 °F 30.03 in WNW 6.9 mph 6.9 mph 65 % 0.00 in
07:49 55.2 °F 43.7 °F 30.06 in SSE 5.8 mph 5.8 mph 65 % 0.00 in
07:54 55.2 °F 43.7 °F 30.06 in NNE 4.6 mph 4.6 mph 65 % 0.00 in
08:09 55.0 °F 43.5 °F 30.06 in NNW 8.1 mph 8.1 mph 65 % 0.00 in
08:19 55.2 °F 43.7 °F 30.06 in WNW 3.5 mph 3.5 mph 65 % 0.00 in
08:24 55.2 °F 43.7 °F 30.06 in South 2.3 mph 2.3 mph 65 % 0.00 in
08:34 55.4 °F 43.8 °F 30.09 in ENE 4.6 mph 4.6 mph 65 % 0.00 in
08:39 55.4 °F 43.8 °F 30.09 in NE 2.6 mph 2.6 mph 65 % 0.00 in
08:54 54.0 °F 42.5 °F 30.09 in ENE 2.3 mph 2.3 mph 65 % 0.00 in
09:09 54.9 °F 43.3 °F 30.09 in West 2.3 mph 2.4 mph 65 % 0.00 in
09:14 55.0 °F 43.5 °F 30.09 in West 5.8 mph 5.8 mph 65 % 0.00 in
09:19 55.2 °F 44.1 °F 30.09 in West 3.8 mph 3.8 mph 66 % 0.00 in
09:29 55.4 °F 44.2 °F 30.09 in WNW 3.5 mph 3.5 mph 66 % 0.00 in
09:34 55.4 °F 44.2 °F 30.12 in WSW 4.7 mph 4.7 mph 66 % 0.00 in
09:39 55.0 °F 43.5 °F 30.12 in ENE 2.3 mph 2.3 mph 65 % 0.00 in
09:44 54.0 °F 42.5 °F 30.12 in WNW 2.3 mph 2.3 mph 65 % 0.00 in
09:49 53.8 °F 42.3 °F 30.12 in WNW 1.4 mph 1.4 mph 65 % 0.00 in
09:54 53.8 °F 42.7 °F 30.12 in ENE 1.2 mph 1.4 mph 66 % 0.00 in
09:59 54.1 °F 43.0 °F 30.12 in NW 3.5 mph 3.5 mph 66 % 0.00 in
10:04 54.5 °F 43.4 °F 30.09 in ENE 3.5 mph 3.5 mph 66 % 0.00 in
10:09 54.7 °F 43.5 °F 30.09 in West 4.6 mph 4.6 mph 66 % 0.00 in
10:14 55.0 °F 43.9 °F 30.09 in NW 4.6 mph 4.6 mph 66 % 0.00 in
10:19 55.2 °F 44.1 °F 30.12 in SW 3.5 mph 3.5 mph 66 % 0.00 in
10:24 55.4 °F 44.6 °F 30.12 in NNE 2.3 mph 2.3 mph 67 % 0.00 in
10:29 55.6 °F 44.8 °F 30.12 in WNW 4.3 mph 4.3 mph 67 % 0.00 in
10:34 55.8 °F 45.0 °F 30.12 in ENE 2.6 mph 2.6 mph 67 % 0.00 in
10:39 54.7 °F 43.5 °F 30.12 in NNE 6.9 mph 6.9 mph 66 % 0.00 in
10:44 53.8 °F 42.7 °F 30.12 in NE 3.5 mph 3.5 mph 66 % 0.00 in
10:49 53.6 °F 42.5 °F 30.12 in NNE 4.6 mph 4.6 mph 66 % 0.00 in
10:54 53.4 °F 42.3 °F 30.12 in North 2.4 mph 2.4 mph 66 % 0.00 in
10:59 53.6 °F 42.5 °F 30.12 in NNW 2.3 mph 2.3 mph 66 % 0.00 in
11:04 53.6 °F 42.5 °F 30.12 in ENE 2.3 mph 2.3 mph 66 % 0.00 in
11:09 53.6 °F 42.5 °F 30.12 in South 2.3 mph 2.3 mph 66 % 0.00 in
11:14 53.6 °F 42.5 °F 30.12 in NE 4.6 mph 4.6 mph 66 % 0.00 in
11:19 53.6 °F 42.5 °F 30.15 in NW 3.5 mph 3.5 mph 66 % 0.00 in
11:24 53.6 °F 42.9 °F 30.15 in ENE 3.5 mph 3.5 mph 67 % 0.00 in
11:29 53.8 °F 43.1 °F 30.15 in NE 2.3 mph 2.3 mph 67 % 0.00 in
11:34 53.8 °F 43.1 °F 30.15 in ENE 2.3 mph 2.3 mph 67 % 0.00 in
11:39 54.0 °F 43.2 °F 30.15 in NW 2.3 mph 2.3 mph 67 % 0.00 in
11:44 54.1 °F 43.4 °F 30.15 in NNE 2.3 mph 2.3 mph 67 % 0.00 in
11:49 54.5 °F 43.8 °F 30.15 in WSW 5.8 mph 5.8 mph 67 % 0.00 in
11:54 55.4 °F 44.6 °F 30.15 in WSW 3.5 mph 3.5 mph 67 % 0.00 in
11:59 55.9 °F 45.1 °F 30.15 in WSW 5.8 mph 5.8 mph 67 % 0.00 in
12:04 56.5 °F 45.7 °F 30.12 in WSW 2.4 mph 2.4 mph 67 % 0.00 in
12:09 56.7 °F 45.8 °F 30.12 in WSW 5.8 mph 5.8 mph 67 % 0.00 in
12:14 57.0 °F 46.2 °F 30.12 in SW 6.9 mph 6.9 mph 67 % 0.00 in
12:19 57.2 °F 45.9 °F 30.15 in ENE 2.4 mph 2.4 mph 66 % 0.00 in
12:24 56.5 °F 44.9 °F 30.15 in ENE 3.5 mph 3.5 mph 65 % 0.00 in
12:29 56.1 °F 44.9 °F 30.15 in ENE 2.6 mph 2.6 mph 66 % 0.00 in
12:34 55.9 °F 44.7 °F 30.18 in NNE 4.6 mph 4.6 mph 66 % 0.00 in
12:39 55.9 °F 44.7 °F 30.18 in ENE 2.6 mph 2.6 mph 66 % 0.00 in
12:44 56.1 °F 44.9 °F 30.18 in East 2.6 mph 2.6 mph 66 % 0.00 in
12:49 56.3 °F 45.1 °F 30.15 in ENE 2.3 mph 2.3 mph 66 % 0.00 in
12:54 56.5 °F 45.3 °F 30.15 in NNE 2.9 mph 2.9 mph 66 % 0.00 in
12:59 56.7 °F 45.0 °F 30.15 in ENE 2.4 mph 2.4 mph 65 % 0.00 in
13:04 56.8 °F 45.2 °F 30.18 in ENE 3.5 mph 3.5 mph 65 % 0.00 in
13:09 57.2 °F 45.5 °F 30.18 in NE 2.4 mph 2.4 mph 65 % 0.00 in
13:14 57.4 °F 45.7 °F 30.18 in ENE 2.6 mph 2.6 mph 65 % 0.00 in
13:19 57.7 °F 46.0 °F 30.15 in NNE 3.5 mph 3.5 mph 65 % 0.00 in
13:24 57.9 °F 46.2 °F 30.15 in NNE 4.6 mph 4.6 mph 65 % 0.00 in
13:29 57.7 °F 45.6 °F 30.15 in NE 5.8 mph 5.8 mph 64 % 0.00 in
13:34 57.9 °F 45.8 °F 30.18 in ENE 4.6 mph 4.6 mph 64 % 0.00 in
13:39 58.5 °F 46.3 °F 30.18 in NNE 3.5 mph 3.5 mph 64 % 0.00 in
13:44 58.8 °F 46.7 °F 30.18 in NNE 2.6 mph 2.6 mph 64 % 0.00 in
13:49 59.2 °F 47.0 °F 30.18 in NE 4.6 mph 4.6 mph 64 % 0.00 in
13:54 59.7 °F 47.5 °F 30.18 in NNE 2.3 mph 2.3 mph 64 % 0.00 in
13:59 60.3 °F 47.6 °F 30.18 in NNE 3.5 mph 3.5 mph 63 % 0.00 in
14:04 60.3 °F 47.6 °F 30.18 in WNW 2.6 mph 2.6 mph 63 % 0.00 in
14:09 60.6 °F 47.9 °F 30.18 in WNW 3.5 mph 3.5 mph 63 % 0.00 in
14:14 61.0 °F 47.9 °F 30.18 in NE 4.6 mph 4.6 mph 62 % 0.00 in
14:19 61.2 °F 48.0 °F 30.18 in West 4.6 mph 4.6 mph 62 % 0.00 in
14:24 61.3 °F 47.8 °F 30.18 in NNE 2.9 mph 2.9 mph 61 % 0.00 in
14:29 61.3 °F 47.8 °F 30.18 in NE 3.5 mph 3.5 mph 61 % 0.00 in
14:34 61.7 °F 48.5 °F 30.18 in Calm     62 % 0.00 in
14:39 61.9 °F 48.3 °F 30.18 in NW 1.2 mph 1.2 mph 61 % 0.00 in
14:44 62.1 °F 48.4 °F 30.18 in NNE 1.4 mph   61 % 0.00 in
14:49 62.1 °F 48.4 °F 30.18 in NNE 2.6 mph 2.6 mph 61 % 0.00 in
14:54 62.1 °F 48.4 °F 30.18 in NW 2.3 mph 2.3 mph 61 % 0.00 in
14:59 62.2 °F 48.6 °F 30.18 in NNW 1.2 mph 1.2 mph 61 % 0.00 in
15:04 62.6 °F 48.5 °F 30.15 in NW 3.5 mph 3.5 mph 60 % 0.00 in
15:09 62.8 °F 48.2 °F 30.15 in NW 2.3 mph 2.3 mph 59 % 0.00 in
15:14 62.8 °F 48.2 °F 30.15 in NE 2.4 mph   59 % 0.00 in
15:19 62.8 °F 48.2 °F 30.15 in NE 2.4 mph 2.4 mph 59 % 0.00 in
15:24 62.8 °F 48.2 °F 30.15 in NNE 1.4 mph 1.4 mph 59 % 0.00 in
15:29 63.0 °F 48.4 °F 30.15 in ENE 3.5 mph 3.5 mph 59 % 0.00 in
15:34 63.1 °F 48.6 °F 30.15 in NNW 2.3 mph 2.3 mph 59 % 0.00 in
15:39 63.5 °F 48.9 °F 30.15 in North 1.4 mph   59 % 0.00 in
15:44 63.5 °F 48.9 °F 30.15 in NW 1.6 mph 1.6 mph 59 % 0.00 in
15:49 63.7 °F 49.1 °F 30.15 in Calm     59 % 0.00 in
15:54 64.4 °F 49.8 °F 30.15 in Calm     59 % 0.00 in
15:59 64.6 °F 49.9 °F 30.15 in North 2.3 mph 2.3 mph 59 % 0.00 in
16:04 65.1 °F 50.4 °F 30.15 in NNW 4.6 mph 4.6 mph 59 % 0.00 in
16:09 65.7 °F 50.9 °F 30.15 in SW 3.5 mph 3.5 mph 59 % 0.00 in
16:14 67.6 °F 51.9 °F 30.15 in WNW 6.9 mph 6.9 mph 57 % 0.00 in
16:19 68.0 °F 51.2 °F 30.18 in WNW 4.6 mph 4.6 mph 55 % 0.00 in
16:21 68.0 °F 51.2 °F 30.18 in West 4.6 mph 4.6 mph 55 % 0.00 in
16:26 68.4 °F 51.1 °F 30.18 in SSW 3.5 mph 3.5 mph 54 % 0.00 in
16:31 68.7 °F 51.4 °F 30.18 in WSW 5.8 mph 5.8 mph 54 % 0.00 in
16:36 69.3 °F 51.4 °F 30.15 in South 2.3 mph 2.3 mph 53 % 0.00 in
16:41 69.4 °F 51.6 °F 30.15 in SW 2.3 mph 2.3 mph 53 % 0.00 in
16:46 69.6 °F 51.7 °F 30.15 in SSW 3.8 mph 3.8 mph 53 % 0.00 in
16:51 69.6 °F 51.7 °F 30.15 in West 4.6 mph 4.6 mph 53 % 0.00 in
16:56 69.4 °F 51.0 °F 30.15 in West 5.8 mph 5.8 mph 52 % 0.00 in
17:01 69.3 °F 50.9 °F 30.15 in NW 3.5 mph 3.5 mph 52 % 0.00 in
17:06 69.1 °F 50.7 °F 30.18 in NW 3.5 mph 3.5 mph 52 % 0.00 in
17:11 68.9 °F 50.5 °F 30.18 in SW 5.8 mph 5.8 mph 52 % 0.00 in
17:16 68.7 °F 49.9 °F 30.18 in West 5.8 mph 5.8 mph 51 % 0.00 in
17:21 68.4 °F 49.5 °F 30.18 in WSW 2.4 mph 2.4 mph 51 % 0.00 in
17:26 68.2 °F 49.4 °F 30.18 in West 8.1 mph 8.1 mph 51 % 0.00 in
17:31 67.8 °F 49.0 °F 30.18 in WNW 3.5 mph 3.5 mph 51 % 0.00 in
17:36 67.5 °F 48.7 °F 30.15 in West 6.9 mph 6.9 mph 51 % 0.00 in
17:41 66.9 °F 48.2 °F 30.15 in WSW 5.8 mph 5.8 mph 51 % 0.00 in
17:46 66.7 °F 47.5 °F 30.15 in WNW 5.8 mph 5.8 mph 50 % 0.00 in
17:51 66.6 °F 47.3 °F 30.18 in West 5.8 mph 5.8 mph 50 % 0.00 in
17:56 66.2 °F 47.0 °F 30.18 in West 2.3 mph 2.3 mph 50 % 0.00 in
18:01 65.7 °F 47.0 °F 30.18 in SW 2.3 mph 2.3 mph 51 % 0.00 in
18:06 65.5 °F 46.9 °F 30.15 in West 4.6 mph 4.6 mph 51 % 0.00 in
18:11 65.3 °F 46.7 °F 30.15 in WSW 5.8 mph 5.8 mph 51 % 0.00 in
18:16 64.9 °F 46.4 °F 30.15 in WSW 3.6 mph 3.6 mph 51 % 0.00 in
18:21 64.8 °F 46.7 °F 30.18 in West 5.8 mph 5.8 mph 52 % 0.00 in
18:26 64.4 °F 46.4 °F 30.18 in WSW 3.5 mph 3.5 mph 52 % 0.00 in
18:31 64.2 °F 46.2 °F 30.18 in WNW 5.8 mph 5.8 mph 52 % 0.00 in
18:36 64.0 °F 46.1 °F 30.18 in SW 3.5 mph 3.5 mph 52 % 0.00 in
18:41 64.0 °F 46.1 °F 30.18 in West 6.9 mph 6.9 mph 52 % 0.00 in
18:46 63.9 °F 45.9 °F 30.18 in WSW 3.5 mph 3.5 mph 52 % 0.00 in
18:51 63.5 °F 45.6 °F 30.15 in SSW 4.6 mph 4.6 mph 52 % 0.00 in
18:56 63.0 °F 45.1 °F 30.15 in SSW 4.6 mph 4.6 mph 52 % 0.00 in
19:01 62.8 °F 45.4 °F 30.15 in South 6.9 mph 6.9 mph 53 % 0.00 in
19:06 62.8 °F 45.4 °F 30.18 in WSW 2.4 mph 2.4 mph 53 % 0.00 in
19:11 62.4 °F 45.5 °F 30.18 in WNW 4.9 mph 4.9 mph 54 % 0.00 in
19:16 62.4 °F 45.5 °F 30.18 in West 3.5 mph 3.5 mph 54 % 0.00 in
19:21 62.1 °F 45.2 °F 30.18 in WNW 4.6 mph 4.6 mph 54 % 0.00 in
19:26 61.9 °F 45.0 °F 30.18 in SW 3.5 mph 3.5 mph 54 % 0.00 in
19:31 61.7 °F 45.4 °F 30.18 in SW 6.9 mph 6.9 mph 55 % 0.00 in
19:36 61.5 °F 45.2 °F 30.21 in WSW 5.8 mph 5.8 mph 55 % 0.00 in
19:41 61.7 °F 45.4 °F 30.21 in WSW 4.6 mph 4.6 mph 55 % 0.00 in
19:46 61.3 °F 45.0 °F 30.21 in WSW 5.8 mph 5.8 mph 55 % 0.00 in
19:51 61.3 °F 45.0 °F 30.18 in West 3.5 mph 3.5 mph 55 % 0.00 in
19:56 61.2 °F 44.9 °F 30.18 in WSW 8.1 mph 8.1 mph 55 % 0.00 in
20:01 61.2 °F 44.9 °F 30.18 in WSW 4.6 mph 4.6 mph 55 % 0.00 in
20:06 61.0 °F 45.2 °F 30.21 in WSW 3.8 mph 3.8 mph 56 % 0.00 in
20:11 60.8 °F 45.0 °F 30.21 in WSW 5.8 mph 5.8 mph 56 % 0.00 in
20:16 60.3 °F 44.5 °F 30.21 in WSW 4.6 mph 4.6 mph 56 % 0.00 in
20:21 60.1 °F 44.3 °F 30.21 in WSW 4.6 mph 4.6 mph 56 % 0.00 in
20:26 59.9 °F 44.2 °F 30.21 in West 4.6 mph 4.6 mph 56 % 0.00 in
20:31 59.7 °F 44.5 °F 30.21 in West 4.6 mph 4.6 mph 57 % 0.00 in
20:36 59.7 °F 44.5 °F 30.21 in WNW 4.6 mph 4.6 mph 57 % 0.00 in
20:41 59.7 °F 44.5 °F 30.21 in West 3.5 mph 3.5 mph 57 % 0.00 in
20:46 59.7 °F 44.5 °F 30.21 in West 4.6 mph 4.6 mph 57 % 0.00 in
20:51 59.5 °F 44.3 °F 30.21 in WNW 3.5 mph 3.5 mph 57 % 0.00 in
20:56 59.4 °F 44.1 °F 30.21 in WSW 3.5 mph 3.5 mph 57 % 0.00 in
21:01 59.4 °F 44.6 °F 30.21 in West 6.4 mph 6.4 mph 58 % 0.00 in
21:06 59.4 °F 44.6 °F 30.18 in West 6.0 mph 6.0 mph 58 % 0.00 in
21:11 59.4 °F 44.6 °F 30.18 in SW 8.1 mph 8.1 mph 58 % 0.00 in
21:21 59.5 °F 44.7 °F 30.18 in West 10.4 mph 10.4 mph 58 % 0.00 in
21:26 59.4 °F 44.6 °F 30.18 in WSW 9.2 mph 9.2 mph 58 % 0.00 in
21:31 59.4 °F 44.6 °F 30.18 in West 8.1 mph 8.1 mph 58 % 0.00 in
21:36 59.2 °F 43.9 °F 30.18 in West 6.9 mph 6.9 mph 57 % 0.00 in
21:41 59.2 °F 43.9 °F 30.18 in West 8.1 mph 8.1 mph 57 % 0.00 in
21:46 59.2 °F 43.9 °F 30.18 in West 8.7 mph 8.7 mph 57 % 0.00 in
21:56 59.0 °F 43.8 °F 30.21 in West 10.4 mph 10.4 mph 57 % 0.00 in
22:01 58.8 °F 43.6 °F 30.18 in West 8.7 mph 8.7 mph 57 % 0.00 in
22:26 58.1 °F 43.4 °F 30.21 in WSW 5.8 mph 5.8 mph 58 % 0.00 in
22:36 57.9 °F 43.2 °F 30.18 in West 10.4 mph 10.4 mph 58 % 0.00 in
22:41 57.7 °F 43.5 °F 30.18 in West 8.1 mph 8.1 mph 59 % 0.00 in
22:46 57.6 °F 43.3 °F 30.21 in West 6.9 mph 6.9 mph 59 % 0.00 in
22:51 57.4 °F 43.2 °F 30.21 in West 3.5 mph 3.5 mph 59 % 0.00 in
22:56 57.2 °F 43.0 °F 30.21 in West 3.3 mph 4.0 mph 59 % 0.00 in
23:01 57.2 °F 43.0 °F 30.21 in WSW 3.5 mph 3.5 mph 59 % 0.00 in
23:07 56.8 °F 42.7 °F 30.21 in WSW 3.5 mph 3.5 mph 59 % 0.00 in
23:12 56.7 °F 42.5 °F 30.21 in West 2.3 mph 2.4 mph 59 % 0.00 in
23:17 56.7 °F 42.5 °F 30.21 in West 3.5 mph 3.5 mph 59 % 0.00 in
23:22 56.7 °F 42.5 °F 30.21 in WSW 4.6 mph 4.6 mph 59 % 0.00 in
23:27 56.7 °F 42.9 °F 30.21 in West 4.7 mph 4.7 mph 60 % 0.00 in
23:32 56.7 °F 42.9 °F 30.21 in WSW 6.9 mph 6.9 mph 60 % 0.00 in
23:37 56.7 °F 42.9 °F 30.21 in WSW 4.6 mph 4.6 mph 60 % 0.00 in
23:38 56.7 °F 42.9 °F 30.21 in WSW 6.4 mph 6.4 mph 60 % 0.00 in
23:43 56.7 °F 42.9 °F 30.21 in West 8.1 mph 8.1 mph 60 % 0.00 in
23:53 56.7 °F 42.9 °F 30.21 in WSW 5.8 mph 5.8 mph 60 % 0.00 in
Meteo Sesrovires
Elogis d' Weather Underground - 1.75 mb

Guio original per  Jim McMurry - jmcmurry@mwt.net Adaptat per a la plantilla per  Wim van der Kuil - Leuven-Template.eu

Trobareu la nostra informacio del temps tambe a:

Weather Underground

AWEKAS